Time;durP1;ratioP1;P1;durP2;ratioP2;P2;SDS_P1;SDS_P2;PMS_P1;PMS_P2;Temp;Humidity;BMP_temperature;BMP_pressure;BME280_temperature;BME280_humidity;BME280_pressure;Samples;Min_cycle;Max_cycle;Signal;HPM_P1;HPM_P2
2021/06/14 00:02:07;;;;;;;12.27;5.30;;;12.60;99.90;;;;;;4778572;30;20109;-92
2021/06/14 00:04:34;;;;;;;16.42;4.63;;;12.50;99.90;;;;;;4781576;30;20047;-90
2021/06/14 00:07:00;;;;;;;12.43;4.95;;;12.50;99.90;;;;;;4771815;30;20058;-90
2021/06/14 00:09:25;;;;;;;13.70;4.88;;;12.50;99.90;;;;;;4786342;29;20051;-93
2021/06/14 00:11:54;;;;;;;16.00;4.85;;;12.40;99.90;;;;;;4785837;29;20471;-91
2021/06/14 00:14:21;;;;;;;9.35;4.50;;;12.40;99.90;;;;;;4785936;30;20051;-94
2021/06/14 00:16:47;;;;;;;13.77;5.07;;;12.40;99.90;;;;;;4800850;29;20059;-91
2021/06/14 00:19:13;;;;;;;13.02;4.95;;;12.30;99.90;;;;;;4771878;30;20070;-91
2021/06/14 00:21:39;;;;;;;12.18;5.85;;;12.30;99.90;;;;;;4788752;30;20070;-91
2021/06/14 00:24:09;;;;;;;10.60;5.43;;;12.20;99.90;;;;;;4789488;29;20040;-90
2021/06/14 00:26:35;;;;;;;16.10;5.88;;;12.20;99.90;;;;;;4788633;30;20043;-90
2021/06/14 00:29:01;;;;;;;12.35;5.70;;;12.20;99.90;;;;;;4789749;30;20079;-92
2021/06/14 00:31:27;;;;;;;16.65;6.35;;;12.20;99.90;;;;;;4790059;29;20146;-92
2021/06/14 00:33:53;;;;;;;12.23;5.45;;;12.10;99.90;;;;;;4774123;30;20055;-91
2021/06/14 00:36:19;;;;;;;10.38;4.55;;;12.10;99.90;;;;;;4760266;30;20081;-92
2021/06/14 00:38:45;;;;;;;8.60;4.85;;;12.00;99.90;;;;;;4789121;30;20047;-94
2021/06/14 00:41:12;;;;;;;15.60;5.80;;;12.00;99.90;;;;;;4788438;29;20055;-90
2021/06/14 00:43:38;;;;;;;12.00;5.45;;;11.90;99.90;;;;;;4773783;30;20043;-92
2021/06/14 00:46:06;;;;;;;14.38;5.32;;;11.90;99.90;;;;;;4804105;29;20503;-92
2021/06/14 00:48:33;;;;;;;11.40;4.80;;;11.90;99.90;;;;;;4789015;30;20091;-92
2021/06/14 00:51:01;;;;;;;11.07;5.10;;;11.90;99.90;;;;;;4789824;29;20055;-91
2021/06/14 00:53:37;;;;;;;11.68;5.32;;;11.80;99.90;;;;;;4789464;29;20055;-93
2021/06/14 00:56:06;;;;;;;14.88;5.75;;;11.80;99.90;;;;;;4789014;30;20051;-92
2021/06/14 00:58:32;;;;;;;9.65;5.80;;;11.80;99.90;;;;;;4788814;29;20047;-91
2021/06/14 01:00:58;;;;;;;11.65;6.22;;;11.70;99.90;;;;;;4773857;30;20462;-92
2021/06/14 01:03:25;;;;;;;9.93;5.80;;;11.70;99.90;;;;;;4803921;29;20055;-93
2021/06/14 01:06:12;;;;;;;13.15;5.25;;;11.70;99.90;;;;;;4788482;30;20055;-92
2021/06/14 01:08:41;;;;;;;16.65;5.93;;;11.60;99.90;;;;;;4787874;30;20055;-93
2021/06/14 01:11:14;;;;;;;16.92;5.50;;;11.60;99.90;;;;;;4788063;30;20055;-93
2021/06/14 01:13:52;;;;;;;12.40;5.25;;;11.60;99.90;;;;;;4788726;30;20043;-93
2021/06/14 01:16:24;;;;;;;11.10;5.18;;;11.50;99.90;;;;;;4776588;30;20058;-93
2021/06/14 01:19:29;;;;;;;12.10;5.38;;;11.50;99.90;;;;;;4788658;30;20058;-94
2021/06/14 01:21:57;;;;;;;11.75;5.10;;;11.50;99.90;;;;;;4758307;29;20441;-95
2021/06/14 01:24:50;;;;;;;17.38;5.13;;;11.40;99.90;;;;;;4804117;29;20047;-93
2021/06/14 01:27:51;;;;;;;12.60;5.18;;;11.40;99.90;;;;;;4803856;29;20085;-93
2021/06/14 01:30:18;;;;;;;;;;;11.40;99.90;;;;;;4769533;30;20520;-93
2021/06/14 01:32:46;;;;;;;12.77;5.47;;;11.40;99.90;;;;;;4803008;29;19929;-93
2021/06/14 01:35:15;;;;;;;12.52;5.40;;;11.40;99.90;;;;;;4789098;30;20511;-94
2021/06/14 01:37:46;;;;;;;16.80;6.05;;;11.40;99.90;;;;;;4773791;30;20051;-94
2021/06/14 01:40:14;;;;;;;12.10;5.78;;;11.40;99.90;;;;;;4790106;29;20051;-96
2021/06/14 01:42:43;;;;;;;20.90;6.63;;;11.40;99.90;;;;;;4803376;29;20050;-94
2021/06/14 01:45:10;;;;;;;12.03;6.47;;;11.40;99.90;;;;;;4788633;30;20130;-95
2021/06/14 01:47:36;;;;;;;12.23;5.57;;;11.40;99.90;;;;;;4788433;30;20059;-95
2021/06/14 01:50:04;;;;;;;7.97;5.15;;;11.40;99.90;;;;;;4803311;29;20057;-96
2021/06/14 01:52:31;;;;;;;14.25;6.07;;;11.40;99.90;;;;;;4773964;30;20055;-95
2021/06/14 01:54:58;;;;;;;12.05;6.32;;;11.40;99.90;;;;;;4803386;29;20047;-94
2021/06/14 01:57:26;;;;;;;12.50;5.72;;;11.40;99.90;;;;;;4789633;29;20104;-95
2021/06/14 01:59:53;;;;;;;17.42;6.13;;;11.30;99.90;;;;;;4803371;29;20043;-96
2021/06/14 02:02:20;;;;;;;9.52;4.85;;;11.30;99.90;;;;;;4774047;30;20051;-94
2021/06/14 02:04:49;;;;;;;19.08;5.20;;;11.20;99.90;;;;;;4773435;30;20479;-94
2021/06/14 02:07:17;;;;;;;11.52;4.90;;;11.20;99.90;;;;;;4803369;29;20067;-95
2021/06/14 02:09:44;;;;;;;14.63;5.53;;;11.10;99.90;;;;;;4787792;30;20054;-95
2021/06/14 02:12:13;;;;;;;17.02;6.78;;;11.10;99.90;;;;;;4789202;29;20553;-95
2021/06/14 02:14:41;;;;;;;15.35;6.90;;;11.10;99.90;;;;;;4802579;29;20382;-92
2021/06/14 02:17:11;;;;;;;20.55;7.28;;;11.10;99.90;;;;;;4802847;29;20100;-92
2021/06/14 02:19:43;;;;;;;10.82;6.82;;;11.20;99.90;;;;;;4787780;30;20081;-92
2021/06/14 02:22:11;;;;;;;16.38;7.30;;;11.10;99.90;;;;;;4802919;29;20043;-92
2021/06/14 02:24:38;;;;;;;20.50;7.97;;;11.20;99.90;;;;;;4788671;30;20460;-93
2021/06/14 02:27:05;;;;;;;14.98;7.28;;;11.20;99.90;;;;;;4789937;29;20130;-93
2021/06/14 02:29:31;;;;;;;15.73;7.60;;;11.20;99.90;;;;;;4787591;30;20056;-91
2021/06/14 02:31:57;;;;;;;16.27;7.30;;;11.20;99.90;;;;;;4771510;30;20063;-93
2021/06/14 02:34:23;;;;;;;13.90;7.05;;;11.10;99.90;;;;;;4786928;30;20101;-92
2021/06/14 02:36:56;;;;;;;13.48;7.72;;;11.10;99.90;;;;;;4786874;30;20055;-93
2021/06/14 02:39:26;;;;;;;20.48;8.25;;;11.10;99.90;;;;;;4783001;30;20047;-93
2021/06/14 02:41:53;;;;;;;15.82;8.18;;;11.10;99.90;;;;;;4786661;29;20047;-94
2021/06/14 02:44:22;;;;;;;16.55;7.65;;;11.10;99.90;;;;;;4788453;29;20529;-93
2021/06/14 02:46:49;;;;;;;20.08;8.55;;;11.10;99.90;;;;;;4787275;30;20081;-93
2021/06/14 02:49:16;;;;;;;16.58;7.43;;;11.10;99.90;;;;;;4787661;29;20465;-93
2021/06/14 02:51:45;;;;;;;19.17;8.63;;;11.10;99.90;;;;;;4786360;30;20071;-93
2021/06/14 02:54:17;;;;;;;19.42;8.25;;;11.10;99.90;;;;;;4787333;30;20170;-93
2021/06/14 02:56:44;;;;;;;13.13;7.50;;;11.10;99.90;;;;;;4801490;29;20047;-93
2021/06/14 02:59:12;;;;;;;13.65;7.30;;;11.10;99.90;;;;;;4801990;29;20497;-93
2021/06/14 03:01:39;;;;;;;21.02;7.88;;;11.10;99.90;;;;;;4786561;30;20091;-93
2021/06/14 03:04:06;;;;;;;15.63;7.85;;;11.10;99.90;;;;;;4787073;30;20169;-93
2021/06/14 03:06:33;;;;;;;12.02;6.55;;;10.90;99.90;;;;;;4788349;29;20126;-93
2021/06/14 03:09:00;;;;;;;20.20;7.25;;;11.00;99.90;;;;;;4786964;30;20749;-94
2021/06/14 03:11:28;;;;;;;20.17;9.00;;;11.00;99.90;;;;;;4787417;30;20083;-93
2021/06/14 03:13:56;;;;;;;18.05;8.00;;;10.90;99.90;;;;;;4787503;29;20089;-93
2021/06/14 03:16:24;;;;;;;16.60;7.95;;;10.90;99.90;;;;;;4787315;30;20075;-93
2021/06/14 03:18:52;;;;;;;13.88;7.57;;;10.90;99.90;;;;;;4786484;30;20051;-92
2021/06/14 03:21:19;;;;;;;17.88;7.35;;;10.90;99.90;;;;;;4771839;30;20146;-92
2021/06/14 03:23:48;;;;;;;17.30;8.48;;;10.80;99.90;;;;;;4785371;30;20078;-93
2021/06/14 03:26:15;;;;;;;17.73;8.90;;;10.80;99.90;;;;;;4786137;30;20046;-92
2021/06/14 03:28:44;;;;;;;12.45;8.27;;;10.80;99.90;;;;;;4785800;29;20104;-94
2021/06/14 03:31:12;;;;;;;16.25;8.38;;;10.80;99.90;;;;;;4801009;29;20051;-91
2021/06/14 03:33:41;;;;;;;21.60;9.68;;;10.70;99.90;;;;;;4787679;29;20051;-94
2021/06/14 03:36:08;;;;;;;37.65;12.27;;;10.80;99.90;;;;;;4786621;30;20070;-91
2021/06/14 03:38:34;;;;;;;22.67;8.95;;;10.80;99.90;;;;;;4787412;29;20469;-92
2021/06/14 03:41:04;;;;;;;23.00;8.00;;;10.80;99.90;;;;;;4787290;29;20605;-92
2021/06/14 03:43:30;;;;;;;21.42;8.52;;;10.90;99.90;;;;;;4786165;30;20051;-94
2021/06/14 03:45:56;;;;;;;16.23;7.97;;;10.90;99.90;;;;;;4787505;30;20436;-93
2021/06/14 03:48:22;;;;;;;20.15;9.18;;;11.00;99.90;;;;;;4786105;30;20122;-92
2021/06/14 03:50:53;;;;;;;20.05;8.07;;;11.10;99.90;;;;;;4756046;30;20131;-93
2021/06/14 03:53:20;;;;;;;22.58;9.05;;;11.10;99.90;;;;;;4786222;30;20071;-92
2021/06/14 03:55:46;;;;;;;21.77;8.43;;;11.20;99.90;;;;;;4783935;30;20054;-94
2021/06/14 03:58:12;;;;;;;20.13;9.05;;;11.20;99.90;;;;;;4796297;29;20478;-93
2021/06/14 04:00:37;;;;;;;13.90;7.93;;;11.20;99.90;;;;;;4786949;30;20126;-95
2021/06/14 04:03:03;;;;;;;21.58;8.63;;;11.30;99.90;;;;;;4785957;30;20051;-93
2021/06/14 04:05:29;;;;;;;26.25;9.05;;;11.30;99.90;;;;;;4771526;30;20048;-93
2021/06/14 04:07:55;;;;;;;17.02;8.82;;;11.30;99.90;;;;;;4785312;30;20382;-93
2021/06/14 04:10:21;;;;;;;24.25;8.90;;;11.40;99.90;;;;;;4771029;30;20441;-92
2021/06/14 04:12:47;;;;;;;13.13;6.95;;;11.40;99.90;;;;;;4784423;29;20400;-93
2021/06/14 04:15:13;;;;;;;16.90;8.38;;;11.40;99.90;;;;;;4785704;30;20051;-93
2021/06/14 04:17:38;;;;;;;13.25;7.28;;;11.50;99.90;;;;;;4785564;29;20071;-93
2021/06/14 04:20:06;;;;;;;21.02;8.35;;;11.50;99.90;;;;;;4784954;30;20043;-93
2021/06/14 04:22:32;;;;;;;22.08;9.48;;;11.60;99.90;;;;;;4784789;30;20043;-92
2021/06/14 04:24:58;;;;;;;25.38;8.48;;;11.60;99.90;;;;;;4784661;29;20134;-93
2021/06/14 04:27:24;;;;;;;17.95;8.85;;;11.70;99.90;;;;;;4785858;30;20139;-93
2021/06/14 04:29:50;;;;;;;18.98;8.00;;;11.70;99.90;;;;;;4784540;30;20059;-93
2021/06/14 04:32:16;;;;;;;17.05;7.38;;;11.80;99.90;;;;;;4767031;30;20063;-93
2021/06/14 04:34:42;;;;;;;21.15;9.18;;;11.80;99.90;;;;;;4783206;30;20150;-93
2021/06/14 04:37:08;;;;;;;19.02;8.10;;;11.80;99.90;;;;;;4784759;30;20338;-92
2021/06/14 04:39:35;;;;;;;20.13;8.15;;;11.90;99.90;;;;;;4786136;29;20495;-90
2021/06/14 04:42:01;;;;;;;16.83;7.22;;;12.00;99.90;;;;;;4785530;29;20071;-91
2021/06/14 04:44:27;;;;;;;15.65;7.25;;;12.10;99.90;;;;;;4785754;30;20421;-94
2021/06/14 04:46:53;;;;;;;18.73;8.02;;;12.10;99.90;;;;;;4785215;30;20047;-95
2021/06/14 04:49:19;;;;;;;14.25;7.05;;;12.20;99.90;;;;;;4770783;30;20091;-95
2021/06/14 04:51:45;;;;;;;16.75;7.03;;;12.30;99.90;;;;;;4785557;30;20077;-94
2021/06/14 04:54:11;;;;;;;12.55;7.38;;;12.30;99.90;;;;;;4784727;30;20122;-93
2021/06/14 04:56:37;;;;;;;12.65;7.10;;;12.40;99.90;;;;;;4769674;30;20059;-93
2021/06/14 04:59:03;;;;;;;20.33;8.35;;;12.50;99.90;;;;;;4783691;30;20070;-92
2021/06/14 05:01:29;;;;;;;16.98;7.65;;;12.60;99.90;;;;;;4784917;30;20389;-94
2021/06/14 05:03:55;;;;;;;16.88;8.07;;;12.70;99.90;;;;;;4771657;29;20078;-92
2021/06/14 05:06:22;;;;;;;17.95;8.50;;;12.80;99.90;;;;;;4788010;30;20047;-92
2021/06/14 05:08:48;;;;;;;20.05;8.32;;;12.80;99.90;;;;;;4789698;29;20059;-94
2021/06/14 05:11:14;;;;;;;16.88;7.70;;;12.80;99.90;;;;;;4789783;30;20524;-92
2021/06/14 05:13:39;;;;;;;14.82;7.78;;;13.00;99.90;;;;;;4803605;29;20051;-92
2021/06/14 05:16:08;;;;;;;14.80;7.18;;;13.10;99.90;;;;;;4789490;29;20051;-94
2021/06/14 05:18:34;;;;;;;16.17;8.50;;;13.10;99.90;;;;;;4789178;29;20136;-92
2021/06/14 05:21:00;;;;;;;13.55;7.35;;;13.20;99.90;;;;;;4788295;29;20108;-92
2021/06/14 05:23:26;;;;;;;17.67;8.02;;;13.30;99.90;;;;;;4789597;29;20043;-92
2021/06/14 05:25:51;;;;;;;13.32;6.75;;;13.40;99.90;;;;;;4788706;30;20553;-93
2021/06/14 05:28:17;;;;;;;16.08;7.95;;;13.40;99.90;;;;;;4788730;29;20122;-94
2021/06/14 05:30:43;;;;;;;18.38;8.82;;;13.50;99.90;;;;;;4773603;30;20099;-92
2021/06/14 05:33:09;;;;;;;21.77;7.55;;;13.60;99.90;;;;;;4802582;29;20055;-92
2021/06/14 05:35:35;;;;;;;14.15;7.28;;;13.70;99.90;;;;;;4785869;29;20078;-93
2021/06/14 05:38:01;;;;;;;16.23;7.35;;;13.80;99.90;;;;;;4786302;30;20083;-94
2021/06/14 05:40:28;;;;;;;16.90;8.00;;;14.00;99.90;;;;;;4802075;29;20503;-93
2021/06/14 05:42:54;;;;;;;16.83;7.93;;;14.10;99.90;;;;;;4771826;30;20497;-94
2021/06/14 05:45:20;;;;;;;16.15;7.35;;;14.10;99.90;;;;;;4787377;30;20073;-94
2021/06/14 05:47:46;;;;;;;17.58;7.80;;;14.30;99.90;;;;;;4788512;30;20067;-93
2021/06/14 05:50:14;;;;;;;18.23;8.02;;;14.30;99.90;;;;;;4773212;30;20059;-92
2021/06/14 05:52:40;;;;;;;15.32;7.90;;;14.40;99.90;;;;;;4788628;30;20039;-94
2021/06/14 05:55:07;;;;;;;18.35;7.90;;;14.50;99.90;;;;;;4803822;29;20055;-95
2021/06/14 05:57:33;;;;;;;19.20;8.45;;;14.60;99.90;;;;;;4789903;30;20408;-94
2021/06/14 05:59:59;;;;;;;15.73;7.95;;;14.70;99.90;;;;;;4774318;30;20057;-94
2021/06/14 06:02:25;;;;;;;20.42;8.25;;;14.80;99.90;;;;;;4788390;30;20047;-93
2021/06/14 06:04:51;;;;;;;12.75;7.82;;;14.90;99.90;;;;;;4775663;30;20078;-95
2021/06/14 06:07:17;;;;;;;13.48;7.03;;;15.00;99.90;;;;;;4789742;30;20058;-93
2021/06/14 06:09:43;;;;;;;15.07;7.60;;;15.10;99.90;;;;;;4788077;30;20039;-93
2021/06/14 06:12:09;;;;;;;19.00;8.82;;;15.20;99.90;;;;;;4804201;29;20097;-94
2021/06/14 06:14:35;;;;;;;14.88;7.38;;;15.30;99.90;;;;;;4803822;29;20054;-95
2021/06/14 06:17:01;;;;;;;18.30;8.18;;;15.50;99.90;;;;;;4773222;30;20047;-95
2021/06/14 06:19:28;;;;;;;14.35;7.10;;;15.60;99.90;;;;;;4788375;30;20134;-94
2021/06/14 06:21:54;;;;;;;22.77;7.20;;;15.80;99.90;;;;;;4789299;29;20043;-95
2021/06/14 06:24:28;;;;;;;16.33;7.10;;;15.90;99.90;;;;;;4773228;30;20478;-96
2021/06/14 06:26:56;;;;;;;16.20;7.55;;;16.00;99.90;;;;;;4774169;30;20130;-95
2021/06/14 06:29:22;;;;;;;21.80;8.23;;;16.10;99.90;;;;;;4788852;30;20493;-95
2021/06/14 06:31:55;;;;;;;16.33;7.40;;;16.10;99.90;;;;;;4789370;30;20047;-95
2021/06/14 06:34:21;;;;;;;15.85;7.43;;;16.30;99.90;;;;;;4773965;30;20570;-94
2021/06/14 06:36:47;;;;;;;17.25;6.93;;;16.40;99.90;;;;;;4788852;30;20050;-96
2021/06/14 06:39:15;;;;;;;14.85;7.18;;;16.40;99.90;;;;;;4789817;29;20051;-96
2021/06/14 06:41:47;;;;;;;17.85;7.13;;;16.50;99.90;;;;;;4789222;30;20489;-94
2021/06/14 06:44:16;;;;;;;15.68;6.50;;;16.60;99.90;;;;;;4759053;30;20058;-96
2021/06/14 06:46:42;;;;;;;14.55;6.25;;;16.80;99.90;;;;;;4789137;30;20074;-96
2021/06/14 06:49:08;;;;;;;17.30;6.10;;;16.90;99.90;;;;;;4774812;30;20078;-95
2021/06/14 06:51:34;;;;;;;18.08;6.40;;;17.00;99.90;;;;;;4789422;29;20062;-96
2021/06/14 06:54:13;;;;;;;12.73;6.65;;;17.10;99.90;;;;;;4788459;30;20046;-96
2021/06/14 06:56:43;;;;;;;12.70;5.22;;;17.10;99.90;;;;;;4788214;30;20068;-95
2021/06/14 06:59:11;;;;;;;13.82;5.50;;;17.20;99.90;;;;;;4771972;30;20138;-94
2021/06/14 07:01:37;;;;;;;15.95;6.40;;;17.30;99.90;;;;;;4772174;30;20063;-94
2021/06/14 07:04:04;;;;;;;12.90;5.35;;;17.40;99.90;;;;;;4786469;30;20096;-95
2021/06/14 07:06:30;;;;;;;10.52;4.93;;;17.60;99.90;;;;;;4786204;30;20055;-93
2021/06/14 07:08:59;;;;;;;13.07;5.75;;;17.70;99.90;;;;;;4756855;30;20663;-92
2021/06/14 07:11:27;;;;;;;22.85;5.20;;;17.90;99.90;;;;;;4786459;30;20055;-94
2021/06/14 07:13:53;;;;;;;10.15;4.95;;;18.00;99.90;;;;;;4771681;30;20916;-93
2021/06/14 07:16:20;;;;;;;10.25;4.28;;;18.10;99.90;;;;;;4744452;30;20051;-93
2021/06/14 07:18:47;;;;;;;13.60;4.90;;;18.20;99.90;;;;;;4786145;30;20063;-91
2021/06/14 07:21:13;;;;;;;14.80;5.38;;;18.20;99.90;;;;;;4800974;29;20047;-92
2021/06/14 07:23:41;;;;;;;12.30;4.57;;;18.30;99.90;;;;;;4786806;30;20047;-93
2021/06/14 07:26:11;;;;;;;9.70;4.18;;;18.40;99.90;;;;;;4801408;29;20505;-92
2021/06/14 07:28:39;;;;;;;12.30;4.72;;;18.60;99.90;;;;;;4786141;29;20057;-92
2021/06/14 07:31:07;;;;;;;7.78;4.10;;;18.70;99.90;;;;;;4786069;29;20172;-94
2021/06/14 07:33:35;;;;;;;9.70;4.40;;;18.70;99.90;;;;;;4785722;30;20059;-92
2021/06/14 07:36:03;;;;;;;9.13;3.85;;;18.80;99.90;;;;;;4782801;30;20138;-93
2021/06/14 07:38:29;;;;;;;10.43;3.83;;;18.90;99.90;;;;;;4787555;30;20078;-92
2021/06/14 07:40:55;;;;;;;13.57;4.57;;;19.00;99.90;;;;;;4786001;30;20046;-93
2021/06/14 07:43:24;;;;;;;9.57;3.85;;;19.10;99.90;;;;;;4785625;30;20043;-92
2021/06/14 07:45:51;;;;;;;12.43;4.68;;;19.20;99.90;;;;;;4785294;30;20062;-92
2021/06/14 07:48:17;;;;;;;8.70;3.78;;;19.30;99.90;;;;;;4768644;30;20055;-93
2021/06/14 07:50:48;;;;;;;14.05;4.15;;;19.30;99.90;;;;;;4786106;30;20058;-93
2021/06/14 07:53:14;;;;;;;11.10;4.22;;;19.50;99.90;;;;;;4771400;30;20059;-93
2021/06/14 07:55:40;;;;;;;16.63;3.85;;;19.60;99.90;;;;;;4779383;30;20134;-93
2021/06/14 07:58:14;;;;;;;13.85;3.90;;;19.60;99.90;;;;;;4757449;30;20513;-95
2021/06/14 08:00:41;;;;;;;11.88;3.92;;;19.70;99.90;;;;;;4771963;30;20146;-94
2021/06/14 08:03:08;;;;;;;9.10;3.70;;;19.80;99.90;;;;;;4785704;30;20069;-94
2021/06/14 08:05:37;;;;;;;12.27;3.75;;;20.00;99.90;;;;;;4801003;29;20108;-92
2021/06/14 08:08:04;;;;;;;12.05;3.42;;;20.10;99.90;;;;;;4781331;29;20067;-92
2021/06/14 08:10:30;;;;;;;11.18;3.72;;;20.20;99.90;;;;;;4766851;30;20451;-93
2021/06/14 08:12:56;;;;;;;13.05;3.50;;;20.30;99.90;;;;;;4771038;30;20096;-94
2021/06/14 08:15:25;;;;;;;6.45;3.33;;;20.30;99.90;;;;;;4785933;30;20047;-93
2021/06/14 08:17:57;;;;;;;8.55;3.53;;;20.40;99.90;;;;;;4784878;30;20070;-94
2021/06/14 08:20:31;;;;;;;22.48;4.72;;;20.50;99.90;;;;;;4786137;30;20162;-93
2021/06/14 08:25:42;;;;;;;8.68;3.60;;;20.70;99.90;;;;;;4786635;30;20122;-93
2021/06/14 08:28:08;;;;;;;9.75;3.67;;;20.80;99.90;;;;;;4756524;30;20065;-94
2021/06/14 08:30:36;;;;;;;10.40;4.20;;;20.80;99.90;;;;;;4771997;30;20051;-90
2021/06/14 08:33:03;;;;;;;11.82;3.70;;;20.80;99.90;;;;;;4785828;30;20063;-92
2021/06/14 08:35:30;;;;;;;7.75;3.47;;;20.80;99.90;;;;;;4786115;29;20082;-93
2021/06/14 08:37:57;;;;;;;12.38;3.63;;;20.80;99.90;;;;;;4786605;30;20146;-93
2021/06/14 08:40:34;;;;;;;6.55;3.28;;;20.80;99.90;;;;;;4787484;29;20047;-92
2021/06/14 08:43:05;;;;;;;8.32;3.22;;;20.90;99.90;;;;;;4790947;29;20109;-92
2021/06/14 08:45:33;;;;;;;8.23;3.55;;;20.90;99.90;;;;;;4790723;30;20116;-93
2021/06/14 08:48:00;;;;;;;10.30;3.65;;;21.00;99.90;;;;;;4789683;30;20503;-92
2021/06/14 08:50:27;;;;;;;7.50;3.15;;;21.20;99.90;;;;;;4790632;29;20063;-92
2021/06/14 08:52:54;;;;;;;6.70;3.30;;;21.30;99.90;;;;;;4775524;30;20047;-92
2021/06/14 08:55:21;;;;;;;6.93;2.92;;;21.30;99.90;;;;;;4789669;30;20055;-92
2021/06/14 08:57:47;;;;;;;6.90;3.00;;;21.40;99.90;;;;;;4774768;30;20558;-93
2021/06/14 09:00:21;;;;;;;11.48;2.70;;;21.50;99.90;;;;;;4789984;30;20505;-92
2021/06/14 09:02:48;;;;;;;7.57;2.90;;;21.50;99.90;;;;;;4789544;30;20501;-93
2021/06/14 09:05:16;;;;;;;8.50;3.60;;;21.60;99.90;;;;;;4789609;30;20119;-94
2021/06/14 09:07:43;;;;;;;7.50;3.20;;;21.60;99.90;;;;;;4790283;30;20059;-93
2021/06/14 09:10:27;;;;;;;8.18;3.25;;;21.70;99.90;;;;;;4775656;30;20120;-93
2021/06/14 09:13:13;;;;;;;6.38;2.85;;;21.70;98.90;;;;;;4789739;30;20047;-93
2021/06/14 09:15:39;;;;;;;7.22;3.50;;;21.70;99.20;;;;;;4790034;30;20047;-93
2021/06/14 09:18:20;;;;;;;8.32;3.65;;;21.80;99.40;;;;;;4805318;29;20047;-94
2021/06/14 09:21:00;;;;;;;10.52;3.15;;;22.00;99.90;;;;;;4791488;29;20043;-93
2021/06/14 09:23:46;;;;;;;10.05;3.65;;;22.10;99.90;;;;;;4785674;30;20056;-94
2021/06/14 09:26:23;;;;;;;8.05;3.10;;;22.20;99.90;;;;;;4765875;30;20548;-94
2021/06/14 09:28:52;;;;;;;6.90;3.20;;;22.30;99.90;;;;;;4781665;30;20493;-94
2021/06/14 09:31:17;;;;;;;7.00;3.25;;;22.30;99.90;;;;;;4783386;30;20047;-94
2021/06/14 09:33:46;;;;;;;5.25;3.50;;;22.40;99.90;;;;;;4799772;29;20071;-95
2021/06/14 09:36:13;;;;;;;9.80;3.38;;;22.40;99.90;;;;;;4788351;30;20385;-95
2021/06/14 09:38:39;;;;;;;10.43;3.72;;;22.50;99.40;;;;;;4788300;29;20146;-94
2021/06/14 09:41:14;;;;;;;6.72;3.80;;;22.50;98.00;;;;;;4787352;30;20047;-95
2021/06/14 09:43:42;;;;;;;9.45;3.47;;;22.60;98.30;;;;;;4784412;30;20047;-95
2021/06/14 09:46:28;;;;;;;9.05;3.22;;;22.70;98.70;;;;;;4788969;29;20138;-95
2021/06/14 09:48:58;;;;;;;7.43;3.10;;;22.80;99.20;;;;;;4799595;29;20051;-94
2021/06/14 09:51:24;;;;;;;7.70;3.40;;;22.90;99.20;;;;;;4789616;29;20047;-95
2021/06/14 09:53:53;;;;;;;8.25;3.50;;;23.00;98.90;;;;;;4788051;30;20043;-94
2021/06/14 09:56:35;;;;;;;9.27;3.38;;;23.10;97.70;;;;;;4784809;29;20485;-93
2021/06/14 09:59:01;;;;;;;6.43;3.55;;;23.20;98.30;;;;;;4777700;30;20048;-92
2021/06/14 10:01:33;;;;;;;6.95;2.90;;;23.20;98.20;;;;;;4787098;30;20120;-94
2021/06/14 10:04:04;;;;;;;10.23;4.35;;;23.20;96.70;;;;;;4785889;30;20443;-94
2021/06/14 10:06:36;;;;;;;5.82;2.80;;;23.30;97.40;;;;;;4783382;30;20245;-93
2021/06/14 10:09:08;;;;;;;6.28;3.13;;;23.30;96.10;;;;;;4800972;29;20043;-95
2021/06/14 10:11:39;;;;;;;5.68;3.00;;;23.40;97.50;;;;;;4786519;30;20073;-95
2021/06/14 10:14:15;;;;;;;10.18;3.50;;;23.40;95.80;;;;;;4783914;30;20409;-93
2021/06/14 10:16:43;;;;;;;10.95;3.08;;;23.50;97.80;;;;;;4785256;30;20047;-94
2021/06/14 10:19:11;;;;;;;6.28;3.10;;;23.50;97.30;;;;;;4778527;30;20734;-94
2021/06/14 10:21:50;;;;;;;8.18;3.35;;;23.50;96.80;;;;;;4786591;29;20051;-94
2021/06/14 10:24:18;;;;;;;6.87;3.20;;;23.50;96.60;;;;;;4782296;30;20047;-93
2021/06/14 10:26:47;;;;;;;8.43;3.17;;;23.50;96.00;;;;;;4785378;30;20058;-94
2021/06/14 10:29:15;;;;;;;8.90;3.28;;;23.70;96.00;;;;;;4783507;30;20106;-95
2021/06/14 10:31:49;;;;;;;15.73;3.47;;;23.80;96.80;;;;;;4770874;30;20098;-94
2021/06/14 10:34:16;;;;;;;6.07;2.92;;;24.00;96.70;;;;;;4787075;29;20131;-95
2021/06/14 10:36:49;;;;;;;10.93;3.33;;;24.00;95.50;;;;;;4777378;30;20051;-94
2021/06/14 10:39:15;;;;;;;14.48;3.72;;;24.20;96.40;;;;;;4786994;29;20820;-93
2021/06/14 10:41:44;;;;;;;6.65;3.53;;;24.30;95.00;;;;;;4786508;29;20043;-94
2021/06/14 10:44:10;;;;;;;20.92;3.30;;;24.30;95.70;;;;;;4786779;29;20054;-95
2021/06/14 10:46:42;;;;;;;7.05;2.95;;;24.40;95.00;;;;;;4785447;30;20078;-94
2021/06/14 10:49:09;;;;;;;8.82;3.58;;;24.40;96.30;;;;;;4786117;30;20085;-94
2021/06/14 10:51:35;;;;;;;13.02;3.08;;;24.40;93.80;;;;;;4756176;30;20135;-95
2021/06/14 10:54:11;;;;;;;15.73;3.33;;;24.50;95.00;;;;;;4786036;30;20073;-95
2021/06/14 10:56:39;;;;;;;13.38;3.00;;;24.60;94.30;;;;;;4782375;30;20408;-95
2021/06/14 10:59:07;;;;;;;7.28;2.58;;;24.70;92.00;;;;;;4785959;30;20123;-94
2021/06/14 11:01:37;;;;;;;8.57;2.90;;;24.90;91.80;;;;;;4785516;30;20134;-93
2021/06/14 11:04:05;;;;;;;12.68;3.40;;;24.90;91.50;;;;;;4785526;29;20047;-95
2021/06/14 11:06:33;;;;;;;10.10;3.10;;;24.90;93.00;;;;;;4784972;30;20057;-94
2021/06/14 11:09:05;;;;;;;12.15;2.95;;;25.00;92.80;;;;;;4785441;30;20047;-94
2021/06/14 11:11:42;;;;;;;8.35;3.20;;;25.20;93.30;;;;;;4783842;29;20049;-95
2021/06/14 11:14:08;;;;;;;8.90;3.03;;;25.40;93.30;;;;;;4766226;30;20043;-93
2021/06/14 11:16:39;;;;;;;5.20;3.10;;;25.40;92.70;;;;;;4785034;30;20046;-94
2021/06/14 11:19:07;;;;;;;12.98;3.95;;;25.50;92.70;;;;;;4770542;30;20047;-94
2021/06/14 11:21:33;;;;;;;6.80;3.00;;;25.70;92.70;;;;;;4783360;30;20408;-94
2021/06/14 11:24:08;;;;;;;10.65;3.47;;;25.80;92.40;;;;;;4786327;29;20055;-94
2021/06/14 11:26:34;;;;;;;9.27;3.33;;;25.70;92.90;;;;;;4786170;29;20504;-94
2021/06/14 11:29:11;;;;;;;11.93;3.63;;;25.50;96.70;;;;;;4785606;30;20130;-93
2021/06/14 11:31:37;;;;;;;10.52;3.13;;;25.50;92.70;;;;;;4785852;29;20051;-94
2021/06/14 11:34:05;;;;;;;7.20;2.80;;;25.70;93.30;;;;;;4785479;30;20067;-94
2021/06/14 11:36:34;;;;;;;9.35;3.40;;;25.90;93.70;;;;;;4784542;30;20117;-94
2021/06/14 11:39:14;;;;;;;13.38;3.53;;;26.10;93.20;;;;;;4785561;30;20126;-93
2021/06/14 11:41:41;;;;;;;6.40;3.28;;;26.20;91.60;;;;;;4784684;30;20096;-94
2021/06/14 11:44:29;;;;;;;7.28;3.67;;;26.40;91.40;;;;;;4785163;30;20489;-94
2021/06/14 11:47:00;;;;;;;10.95;3.38;;;26.40;91.90;;;;;;4775172;30;20496;-96
2021/06/14 11:49:35;;;;;;;16.63;3.70;;;26.50;88.40;;;;;;4785409;30;20116;-95
2021/06/14 11:52:04;;;;;;;6.13;3.17;;;26.50;88.50;;;;;;4780472;30;20052;-95
2021/06/14 11:54:30;;;;;;;7.35;3.40;;;26.50;88.70;;;;;;4785231;30;20456;-93
2021/06/14 11:56:59;;;;;;;11.27;3.83;;;26.70;89.70;;;;;;4785329;30;20054;-94
2021/06/14 11:59:33;;;;;;;8.23;2.70;;;26.70;92.80;;;;;;4785629;30;20053;-95
2021/06/14 12:02:00;;;;;;;9.02;3.85;;;26.40;90.20;;;;;;4783468;30;20035;-94
2021/06/14 12:04:26;;;;;;;6.07;2.95;;;26.70;86.10;;;;;;4785643;29;20066;-94
2021/06/14 12:06:53;;;;;;;4.35;2.40;;;26.90;85.40;;;;;;4784289;30;20501;-92
2021/06/14 12:09:25;;;;;;;6.72;2.90;;;27.00;87.30;;;;;;4764544;30;20130;-94
2021/06/14 12:12:04;;;;;;;7.68;3.13;;;26.70;88.20;;;;;;4779021;30;20046;-94
2021/06/14 12:14:33;;;;;;;10.90;2.77;;;26.80;90.30;;;;;;4787943;29;20126;-94
2021/06/14 12:17:05;;;;;;;4.63;2.70;;;27.20;91.10;;;;;;4790673;30;20084;-94
2021/06/14 12:19:36;;;;;;;5.50;2.33;;;27.50;80.60;;;;;;4790134;30;20067;-94
2021/06/14 12:22:06;;;;;;;9.68;2.55;;;28.00;80.90;;;;;;4790825;30;20044;-94
2021/06/14 12:24:37;;;;;;;4.45;2.63;;;28.30;78.50;;;;;;4790873;30;20057;-93
2021/06/14 12:27:05;;;;;;;7.25;3.25;;;28.50;75.90;;;;;;4791702;29;20082;-93
2021/06/14 12:29:32;;;;;;;7.93;3.22;;;28.90;76.90;;;;;;4790297;30;20051;-92
2021/06/14 12:32:05;;;;;;;6.78;3.20;;;29.10;73.20;;;;;;4760724;30;20126;-93
2021/06/14 12:34:31;;;;;;;12.27;2.90;;;29.30;71.10;;;;;;4790205;30;20509;-92
2021/06/14 12:36:59;;;;;;;11.10;3.25;;;29.70;68.60;;;;;;4790403;30;20043;-92
2021/06/14 12:39:25;;;;;;;7.60;2.58;;;29.90;73.90;;;;;;4790739;30;20051;-92
2021/06/14 12:41:51;;;;;;;9.63;3.00;;;30.00;69.60;;;;;;4760803;30;20208;-92
2021/06/14 12:44:17;;;;;;;8.85;3.08;;;29.80;67.80;;;;;;4791564;29;20497;-92
2021/06/14 12:46:43;;;;;;;7.18;2.97;;;29.90;68.50;;;;;;4790047;30;20047;-92
2021/06/14 12:49:09;;;;;;;6.90;2.60;;;29.90;68.10;;;;;;4775622;30;20051;-93
2021/06/14 12:51:38;;;;;;;7.75;2.58;;;30.10;63.70;;;;;;4775363;30;20058;-92